METAR AND TAF INFORMATION
METAR FOR SKPS
ADDS - METARS form results

(1149 UTC 15 December 2017)
Data provider http://aviationweather.gov/adds/metars/
 
METAR text: SKPS 151100Z 00000KT 9999 NSC 15/12 A3014
Conditions at: SKPS (PASTO/ANTONIO NA, CO) observed 1100 UTC 15 December 2017
Temperature: 15.0°C (59°F)
Dewpoint: 12.0°C (54°F) [RH = 82%]
Pressure (altimeter): 30.14 inches Hg (1020.7 mb)
Winds: calm
Visibility: 6 or more miles (10+ km)
Ceiling: at least 12,000 feet AGL
Clouds: sky clear below 12,000 feet AGL
Weather: no significant weather observed at this time

 AIRPORT MAP

 RUNWAY INFORMATION
Runway 02 Runway length 7585 ft Runway width 130 ft
Runway elevation 5840 ft Runway displaced threshold 200 ft Runway heading 16
Runway 20 Runway length 7585 ft Runway width 130 ft
Runway elevation 5840 ft Runway displaced threshold 170 ft Runway heading 196

 AIRPORT FREQUENCIES
Type RDO Name PASTO RDO Frequency 348.8 MHZ
Type TWR Name TWR Frequency 118 MHZ

 AIRPORT NEAR NAVIGATION AIDS
Type VOR-DME Name Pasto Frequency 113400 KHZ
Type NDB Name Pasto Frequency 264 KHZ



v2.6.1